Airfield :
LOGIN :

Register | Disclaimer

   EN    FR    IT 

 










Legend :    VFR   Marginal VFR   IFR   Intensive IFR   Very Intensive IFR
Visi :
Ceiling :
>= 8 km
>= 3000ft
5 to 8 km
1000 to 3000 ft
1500m to 5 km
500 to 1000 ft
800 to 1500m
200 to 500 ft
< 800m
< 200 ft
Symbols :   Thunderstorms  Fog  Heavy snow  Heavy precipitations  Wind > 20 kt
SIGMETs :     Misc.  Thunderstorms  Icing  Turbulence  Mountain Waves  Volcanic Ashes






- Airport Elevation : 36 ft
- IATA code : GJL


DAAV - Jijel Ferhat Abbas

CURRENT METAR :
  • 142200Z 17002KT CAVOK 13/12 Q1003

EXPIRED METARs :
  • 142100Z 15002KT CAVOK 13/11 Q1004
  • 142000Z 17004KT CAVOK 16/09 Q1004

TAF TAF DAAV
Valid from the 14 at 18:00 until the 15 at 18:00 UTC


141700Z 1418/1518 20010KT 9999 FEW020 BKN200
PROB40
TEMPO 1418/1506 FEW020TCU
PROB30
TEMPO 1500/1512 5000 -TSRA FEW020CB BKN030
BECMG 1506/1508 30010KT



MET'MAP, your aeronautical weather chart ! - Copyright ORBIFLY December 2007 - Disclaimer

ORBIFLY MET'MAP TEAM :

Programming & Development : Alexandra Zaïnal
Concept & Development : Baudouin d'Aumeries
Co-Development & Prog : Marc-Olivier Méhu
Technical & hardware support : Manuel Goepfert

Contact : metmap@orbifly.com




SOURCES & CREDITS :

   NOAA